Time;durP1;ratioP1;P1;durP2;ratioP2;P2;SDS_P1;SDS_P2;PMS_P1;PMS_P2;Temp;Humidity;BMP_temperature;BMP_pressure;BME280_temperature;BME280_humidity;BME280_pressure;Samples;Min_cycle;Max_cycle;Signal;HPM_P1;HPM_P2
2022/03/17 00:02:18;;;;;;;54.63;26.23;;;;;;;;;;5093716;28;20458;-68
2022/03/17 00:04:45;;;;;;;66.13;35.13;;;;;;;;;;5093350;28;20454;-68
2022/03/17 00:07:13;;;;;;;54.47;29.30;;;;;;;;;;5092903;28;20971;-68
2022/03/17 00:09:40;;;;;;;63.33;35.17;;;;;;;;;;5093544;28;20500;-68
2022/03/17 00:12:08;;;;;;;52.17;30.03;;;;;;;;;;5093024;28;20451;-68
2022/03/17 00:14:36;;;;;;;57.80;31.93;;;;;;;;;;5093337;28;20490;-68
2022/03/17 00:17:03;;;;;;;46.67;24.80;;;;;;;;;;5093460;28;20473;-68
2022/03/17 00:19:32;;;;;;;59.60;32.23;;;;;;;;;;5093348;28;20568;-68
2022/03/17 00:21:59;;;;;;;59.37;33.50;;;;;;;;;;5093195;28;20451;-69
2022/03/17 00:24:26;;;;;;;48.07;25.77;;;;;;;;;;5093446;28;20450;-68
2022/03/17 00:26:54;;;;;;;56.77;29.73;;;;;;;;;;5093070;28;20557;-68
2022/03/17 00:29:21;;;;;;;54.10;30.33;;;;;;;;;;5093227;28;20537;-69
2022/03/17 00:31:48;;;;;;;62.43;34.90;;;;;;;;;;5093095;28;20461;-68
2022/03/17 00:34:15;;;;;;;65.60;32.13;;;;;;;;;;5092464;28;20461;-68
2022/03/17 00:36:44;;;;;;;59.27;34.13;;;;;;;;;;5093174;28;20477;-68
2022/03/17 00:39:11;;;;;;;56.53;30.37;;;;;;;;;;5092912;28;20493;-68
2022/03/17 00:41:38;;;;;;;56.10;29.27;;;;;;;;;;5092757;28;20462;-68
2022/03/17 00:44:05;;;;;;;62.80;31.00;;;;;;;;;;5092763;28;20944;-68
2022/03/17 00:46:33;;;;;;;60.70;34.13;;;;;;;;;;5092793;28;20822;-68
2022/03/17 00:49:00;;;;;;;68.13;34.17;;;;;;;;;;5092838;28;20478;-68
2022/03/17 00:51:27;;;;;;;62.10;33.30;;;;;;;;;;5092609;28;20451;-69
2022/03/17 00:53:56;;;;;;;62.33;30.27;;;;;;;;;;5092646;28;20458;-69
2022/03/17 00:56:23;;;;;;;60.50;33.47;;;;;;;;;;5092729;28;20451;-69
2022/03/17 00:58:50;;;;;;;65.23;36.23;;;;;;;;;;5092665;28;21018;-69
2022/03/17 01:01:18;;;;;;;60.20;29.60;;;;;;;;;;5092767;28;20828;-69
2022/03/17 01:03:46;;;;;;;54.20;31.67;;;;;;;;;;5092649;28;20455;-68
2022/03/17 01:06:13;;;;;;;56.63;28.77;;;;;;;;;;5092834;28;20450;-69
2022/03/17 01:08:41;;;;;;;54.00;30.97;;;;;;;;;;5092741;28;20462;-69
2022/03/17 01:11:09;;;;;;;51.10;30.60;;;;;;;;;;5092602;28;20457;-69
2022/03/17 01:13:36;;;;;;;50.27;25.93;;;;;;;;;;5092549;28;20454;-69
2022/03/17 01:16:04;;;;;;;63.10;35.60;;;;;;;;;;5092097;28;20456;-69
2022/03/17 01:18:31;;;;;;;51.60;29.07;;;;;;;;;;5092617;28;20897;-68
2022/03/17 01:20:58;;;;;;;49.77;26.93;;;;;;;;;;5092095;28;20473;-68
2022/03/17 01:23:25;;;;;;;57.50;31.97;;;;;;;;;;5092551;28;20492;-68
2022/03/17 01:25:52;;;;;;;63.80;31.07;;;;;;;;;;5092378;28;20455;-68
2022/03/17 01:28:21;;;;;;;60.97;32.93;;;;;;;;;;5092494;28;20470;-68
2022/03/17 01:30:49;;;;;;;52.20;29.13;;;;;;;;;;5092393;28;20458;-68
2022/03/17 01:33:16;;;;;;;57.27;30.47;;;;;;;;;;5092499;28;20797;-68
2022/03/17 01:35:43;;;;;;;55.13;28.17;;;;;;;;;;5092026;28;20458;-68
2022/03/17 01:38:10;;;;;;;62.23;29.50;;;;;;;;;;5092261;28;20474;-69
2022/03/17 01:40:37;;;;;;;65.83;35.00;;;;;;;;;;5092298;28;20489;-69
2022/03/17 01:43:04;;;;;;;66.10;33.87;;;;;;;;;;5092197;28;20455;-69
2022/03/17 01:45:33;;;;;;;49.27;30.43;;;;;;;;;;5092164;28;20453;-68
2022/03/17 01:48:00;;;;;;;62.77;32.27;;;;;;;;;;5092001;28;20486;-68
2022/03/17 01:50:27;;;;;;;61.07;31.90;;;;;;;;;;5092284;28;20468;-68
2022/03/17 01:52:54;;;;;;;56.10;34.30;;;;;;;;;;5091826;28;21061;-69
2022/03/17 01:55:21;;;;;;;56.37;32.87;;;;;;;;;;5092186;28;20454;-69
2022/03/17 01:57:49;;;;;;;64.13;34.57;;;;;;;;;;5091499;28;20471;-68
2022/03/17 02:00:18;;;;;;;58.60;33.30;;;;;;;;;;5092231;28;20486;-68
2022/03/17 02:02:48;;;;;;;62.83;34.40;;;;;;;;;;5092140;28;20454;-68
2022/03/17 02:05:15;;;;;;;66.83;35.27;;;;;;;;;;5095373;28;20442;-68
2022/03/17 02:07:45;;;;;;;60.40;31.93;;;;;;;;;;5095803;28;20971;-69
2022/03/17 02:10:12;;;;;;;59.27;32.40;;;;;;;;;;5095630;28;20454;-69
2022/03/17 02:15:23;;;;;;;65.83;35.97;;;;;;;;;;5095642;28;20485;-69
2022/03/17 02:17:52;;;;;;;52.90;30.13;;;;;;;;;;5095610;28;20474;-69
2022/03/17 02:20:20;;;;;;;57.30;31.57;;;;;;;;;;5095621;28;20493;-69
2022/03/17 02:22:48;;;;;;;56.23;31.60;;;;;;;;;;5095502;28;20455;-69
2022/03/17 02:25:34;;;;;;;56.87;32.70;;;;;;;;;;5095286;28;20760;-69
2022/03/17 02:28:02;;;;;;;58.77;31.60;;;;;;;;;;5094908;28;20527;-68
2022/03/17 02:30:30;;;;;;;65.13;35.20;;;;;;;;;;5095417;28;20538;-68
2022/03/17 02:33:00;;;;;;;64.87;34.97;;;;;;;;;;5094939;28;20458;-68
2022/03/17 02:35:28;;;;;;;55.97;31.80;;;;;;;;;;5095007;28;20447;-68
2022/03/17 02:37:56;;;;;;;55.93;32.90;;;;;;;;;;5095226;28;20471;-68
2022/03/17 02:40:26;;;;;;;66.47;34.47;;;;;;;;;;5095196;28;20523;-68
2022/03/17 02:42:53;;;;;;;61.50;33.50;;;;;;;;;;5095078;28;20482;-68
2022/03/17 02:45:20;;;;;;;58.20;33.50;;;;;;;;;;5095022;28;20451;-68
2022/03/17 02:47:47;;;;;;;68.27;36.53;;;;;;;;;;5094867;28;20551;-68
2022/03/17 02:50:14;;;;;;;65.40;35.07;;;;;;;;;;5095120;28;20450;-68
2022/03/17 02:52:42;;;;;;;72.93;35.47;;;;;;;;;;5095051;28;20936;-68
2022/03/17 02:55:11;;;;;;;57.77;33.10;;;;;;;;;;5094619;28;20443;-68
2022/03/17 02:57:39;;;;;;;63.77;34.27;;;;;;;;;;5094840;28;20470;-68
2022/03/17 03:00:08;;;;;;;58.70;33.33;;;;;;;;;;5094782;28;20490;-69
2022/03/17 03:02:35;;;;;;;68.40;34.57;;;;;;;;;;5094371;28;20459;-68
2022/03/17 03:05:03;;;;;;;61.80;36.27;;;;;;;;;;5094523;28;20865;-68
2022/03/17 03:07:30;;;;;;;57.43;31.03;;;;;;;;;;5093792;28;20474;-68
2022/03/17 03:09:57;;;;;;;73.13;38.63;;;;;;;;;;5094845;28;20450;-69
2022/03/17 03:12:24;;;;;;;62.90;35.60;;;;;;;;;;5094754;28;20857;-68
2022/03/17 03:14:52;;;;;;;55.57;34.00;;;;;;;;;;5094015;28;20455;-68
2022/03/17 03:17:21;;;;;;;71.67;36.40;;;;;;;;;;5094567;28;20488;-68
2022/03/17 03:19:48;;;;;;;65.40;35.10;;;;;;;;;;5094332;28;20539;-68
2022/03/17 03:22:16;;;;;;;72.07;35.87;;;;;;;;;;5094432;28;20458;-68
2022/03/17 03:24:43;;;;;;;77.07;37.17;;;;;;;;;;5094227;28;20462;-68
2022/03/17 03:27:10;;;;;;;74.50;36.67;;;;;;;;;;5094259;28;20486;-69
2022/03/17 03:29:37;;;;;;;69.47;36.83;;;;;;;;;;5094365;28;20881;-68
2022/03/17 03:32:06;;;;;;;67.87;34.77;;;;;;;;;;5094181;28;20447;-68
2022/03/17 03:34:34;;;;;;;61.97;33.33;;;;;;;;;;5093656;28;20458;-69
2022/03/17 03:39:46;;;;;;;71.03;36.37;;;;;;;;;;5094082;28;21008;-68
2022/03/17 03:42:13;;;;;;;66.97;35.77;;;;;;;;;;5093898;28;20458;-68
2022/03/17 03:44:40;;;;;;;69.20;35.83;;;;;;;;;;5093861;28;20458;-68
2022/03/17 03:47:09;;;;;;;69.13;34.40;;;;;;;;;;5093326;28;20462;-69
2022/03/17 03:49:39;;;;;;;67.27;37.43;;;;;;;;;;5093958;28;20459;-69
2022/03/17 03:52:06;;;;;;;68.63;37.57;;;;;;;;;;5093891;28;20447;-68
2022/03/17 03:54:33;;;;;;;70.40;37.27;;;;;;;;;;5093768;28;20447;-68
2022/03/17 03:57:00;;;;;;;67.03;36.07;;;;;;;;;;5093752;28;20461;-69
2022/03/17 03:59:29;;;;;;;67.30;36.97;;;;;;;;;;5094079;28;21002;-70
2022/03/17 04:01:57;;;;;;;68.80;35.77;;;;;;;;;;5093723;28;20943;-68
2022/03/17 04:04:26;;;;;;;65.47;36.63;;;;;;;;;;5093671;28;20869;-68
2022/03/17 04:06:54;;;;;;;60.90;34.47;;;;;;;;;;5093358;28;20451;-69
2022/03/17 04:09:23;;;;;;;61.97;34.17;;;;;;;;;;5093830;28;20816;-68
2022/03/17 04:11:50;;;;;;;62.80;34.93;;;;;;;;;;5093585;28;20545;-68
2022/03/17 04:14:17;;;;;;;66.10;34.97;;;;;;;;;;5093471;28;20458;-68
2022/03/17 04:16:45;;;;;;;66.67;37.80;;;;;;;;;;5093251;28;20558;-68
2022/03/17 04:19:12;;;;;;;79.40;39.87;;;;;;;;;;5093384;28;20446;-68
2022/03/17 04:21:41;;;;;;;75.07;39.67;;;;;;;;;;5093055;28;20451;-68
2022/03/17 04:24:08;;;;;;;66.80;37.27;;;;;;;;;;5093125;28;20454;-68
2022/03/17 04:26:35;;;;;;;75.83;34.67;;;;;;;;;;5092707;28;20453;-68
2022/03/17 04:29:03;;;;;;;74.07;36.10;;;;;;;;;;5093034;28;20467;-69
2022/03/17 04:31:30;;;;;;;64.87;35.70;;;;;;;;;;5093302;28;20962;-68
2022/03/17 04:33:57;;;;;;;62.47;35.60;;;;;;;;;;5092446;28;20450;-68
2022/03/17 04:36:24;;;;;;;64.97;36.70;;;;;;;;;;5093197;28;20834;-68
2022/03/17 04:38:53;;;;;;;64.40;36.40;;;;;;;;;;5092900;28;21005;-68
2022/03/17 04:41:20;;;;;;;68.63;39.00;;;;;;;;;;5093042;28;20885;-69
2022/03/17 04:43:47;;;;;;;69.80;37.27;;;;;;;;;;5092841;28;20500;-69
2022/03/17 04:46:15;;;;;;;59.63;31.50;;;;;;;;;;5093091;28;20457;-68
2022/03/17 04:48:42;;;;;;;69.40;34.27;;;;;;;;;;5092861;28;20483;-69
2022/03/17 04:51:09;;;;;;;71.20;35.33;;;;;;;;;;5092868;28;20447;-68
2022/03/17 04:53:37;;;;;;;79.27;41.57;;;;;;;;;;5093010;28;20947;-68
2022/03/17 04:56:07;;;;;;;73.70;39.23;;;;;;;;;;5092916;28;20478;-68
2022/03/17 04:58:35;;;;;;;70.07;36.73;;;;;;;;;;5092930;28;20506;-68
2022/03/17 05:01:02;;;;;;;71.43;37.53;;;;;;;;;;5092492;28;20583;-68
2022/03/17 05:03:30;;;;;;;74.57;40.47;;;;;;;;;;5092798;28;20465;-68
2022/03/17 05:05:57;;;;;;;61.20;32.43;;;;;;;;;;5092732;28;20446;-68
2022/03/17 05:08:24;;;;;;;67.60;35.07;;;;;;;;;;5092732;28;20467;-68
2022/03/17 05:10:52;;;;;;;66.30;36.93;;;;;;;;;;5092752;28;20454;-68
2022/03/17 05:13:22;;;;;;;75.20;43.50;;;;;;;;;;5092920;28;20541;-68
2022/03/17 05:15:51;;;;;;;73.87;38.27;;;;;;;;;;5092619;28;20458;-68
2022/03/17 05:18:18;;;;;;;73.37;39.20;;;;;;;;;;5092768;28;20485;-68
2022/03/17 05:20:46;;;;;;;65.87;34.80;;;;;;;;;;5092655;28;20492;-68
2022/03/17 05:23:14;;;;;;;70.53;38.43;;;;;;;;;;5092650;28;20446;-68
2022/03/17 05:25:41;;;;;;;77.47;41.37;;;;;;;;;;5092536;28;20455;-68
2022/03/17 05:28:09;;;;;;;67.63;35.27;;;;;;;;;;5092532;28;20482;-68
2022/03/17 05:30:38;;;;;;;70.53;39.03;;;;;;;;;;5092693;28;20503;-68
2022/03/17 05:33:05;;;;;;;74.73;41.40;;;;;;;;;;5092242;28;20458;-68
2022/03/17 05:35:32;;;;;;;65.77;39.30;;;;;;;;;;5091857;28;20450;-68
2022/03/17 05:38:01;;;;;;;73.17;41.83;;;;;;;;;;5092107;28;20477;-68
2022/03/17 05:40:29;;;;;;;70.43;38.00;;;;;;;;;;5096503;28;20638;-68
2022/03/17 05:42:56;;;;;;;80.87;38.77;;;;;;;;;;5096311;28;20477;-69
2022/03/17 05:45:25;;;;;;;89.67;39.70;;;;;;;;;;5096343;28;20458;-68
2022/03/17 05:47:54;;;;;;;68.03;35.77;;;;;;;;;;5096042;28;20525;-69
2022/03/17 05:50:22;;;;;;;77.30;41.03;;;;;;;;;;5096551;28;20446;-68
2022/03/17 05:52:49;;;;;;;75.77;40.87;;;;;;;;;;5096281;28;20962;-68
2022/03/17 05:55:18;;;;;;;67.57;38.90;;;;;;;;;;5096062;28;20450;-69
2022/03/17 05:57:46;;;;;;;71.07;39.87;;;;;;;;;;5096157;28;20470;-68
2022/03/17 06:00:16;;;;;;;65.60;34.20;;;;;;;;;;5096153;28;20481;-68
2022/03/17 06:02:43;;;;;;;63.40;33.40;;;;;;;;;;5096117;28;20970;-68
2022/03/17 06:05:12;;;;;;;70.30;38.93;;;;;;;;;;5095841;28;20458;-68
2022/03/17 06:07:40;;;;;;;60.63;35.83;;;;;;;;;;5095566;28;20513;-69
2022/03/17 06:10:07;;;;;;;70.13;37.90;;;;;;;;;;5095924;28;20951;-69
2022/03/17 06:12:34;;;;;;;72.53;38.07;;;;;;;;;;5095552;28;20473;-68
2022/03/17 06:15:02;;;;;;;69.20;37.43;;;;;;;;;;5095467;28;20453;-68
2022/03/17 06:17:39;;;;;;;65.40;38.53;;;;;;;;;;5095622;28;20485;-68
2022/03/17 06:20:09;;;;;;;74.77;39.70;;;;;;;;;;5095644;28;20485;-68
2022/03/17 06:22:38;;;;;;;71.80;40.77;;;;;;;;;;5095719;28;20457;-68
2022/03/17 06:25:06;;;;;;;66.53;38.40;;;;;;;;;;5095544;28;20485;-68
2022/03/17 06:27:34;;;;;;;69.40;40.67;;;;;;;;;;5095476;28;20474;-68
2022/03/17 06:30:02;;;;;;;62.47;36.83;;;;;;;;;;5095540;28;20450;-68
2022/03/17 06:32:29;;;;;;;63.70;36.10;;;;;;;;;;5095630;28;20798;-68
2022/03/17 06:34:56;;;;;;;61.87;35.80;;;;;;;;;;5094920;28;20955;-68
2022/03/17 06:37:23;;;;;;;64.23;37.20;;;;;;;;;;5095449;28;20478;-68
2022/03/17 06:39:53;;;;;;;76.00;38.03;;;;;;;;;;5095286;28;20477;-68
2022/03/17 06:42:20;;;;;;;61.43;33.90;;;;;;;;;;5094997;28;20461;-68
2022/03/17 06:44:47;;;;;;;68.40;36.33;;;;;;;;;;5095145;28;20451;-68
2022/03/17 06:47:14;;;;;;;64.33;35.97;;;;;;;;;;5094466;28;20467;-68
2022/03/17 06:49:42;;;;;;;60.20;33.27;;;;;;;;;;5094735;28;20450;-68
2022/03/17 06:52:09;;;;;;;58.73;34.70;;;;;;;;;;5095129;28;20451;-68
2022/03/17 06:54:36;;;;;;;54.83;33.00;;;;;;;;;;5094852;28;20451;-69
2022/03/17 06:57:05;;;;;;;65.47;35.37;;;;;;;;;;5094884;28;20967;-68
2022/03/17 06:59:32;;;;;;;56.73;33.60;;;;;;;;;;5095150;28;20822;-68
2022/03/17 07:01:59;;;;;;;63.20;34.70;;;;;;;;;;5094805;28;20494;-69
2022/03/17 07:04:26;;;;;;;61.87;35.90;;;;;;;;;;5094758;28;20458;-68
2022/03/17 07:06:53;;;;;;;66.40;37.00;;;;;;;;;;5094850;28;20943;-68
2022/03/17 07:09:20;;;;;;;59.07;36.57;;;;;;;;;;5094858;28;20457;-68
2022/03/17 07:11:47;;;;;;;56.73;31.83;;;;;;;;;;5094776;28;20447;-68
2022/03/17 07:14:16;;;;;;;58.20;34.73;;;;;;;;;;5094539;28;20490;-69
2022/03/17 07:16:43;;;;;;;58.60;35.60;;;;;;;;;;5094297;28;20862;-69
2022/03/17 07:19:10;;;;;;;69.27;34.87;;;;;;;;;;5094663;28;20561;-68
2022/03/17 07:21:37;;;;;;;56.70;31.77;;;;;;;;;;5094423;28;20833;-69
2022/03/17 07:24:05;;;;;;;50.73;28.40;;;;;;;;;;5094226;28;20450;-69
2022/03/17 07:26:32;;;;;;;55.10;33.63;;;;;;;;;;5094118;28;20489;-68
2022/03/17 07:29:01;;;;;;;53.40;32.30;;;;;;;;;;5094290;28;20471;-69
2022/03/17 07:31:30;;;;;;;59.20;33.67;;;;;;;;;;5094451;28;20464;-69
2022/03/17 07:33:59;;;;;;;46.17;30.03;;;;;;;;;;5093581;28;20453;-69
2022/03/17 07:36:27;;;;;;;50.47;31.40;;;;;;;;;;5094434;28;20451;-68
2022/03/17 07:38:55;;;;;;;52.07;32.13;;;;;;;;;;5094241;28;20469;-68
2022/03/17 07:41:22;;;;;;;47.43;31.57;;;;;;;;;;5094267;28;20490;-68
2022/03/17 07:43:49;;;;;;;56.60;26.00;;;;;;;;;;5093894;28;20454;-69
2022/03/17 07:46:17;;;;;;;58.37;30.30;;;;;;;;;;5109724;28;20462;-68
2022/03/17 07:48:45;;;;;;;51.80;30.40;;;;;;;;;;5113941;28;21000;-69
2022/03/17 07:51:13;;;;;;;50.07;29.07;;;;;;;;;;5114088;28;20481;-69
2022/03/17 07:53:41;;;;;;;55.83;36.20;;;;;;;;;;5114107;28;20954;-69
2022/03/17 07:56:08;;;;;;;49.40;30.87;;;;;;;;;;5113548;28;21474;-68
2022/03/17 07:58:36;;;;;;;49.80;32.00;;;;;;;;;;5114124;28;20559;-68
2022/03/17 08:01:03;;;;;;;50.73;30.63;;;;;;;;;;5112646;28;20492;-69
2022/03/17 08:03:30;;;;;;;50.70;30.20;;;;;;;;;;5113889;28;20457;-69
2022/03/17 08:05:59;;;;;;;51.93;28.97;;;;;;;;;;5113829;28;20449;-69
2022/03/17 08:08:26;;;;;;;50.37;30.13;;;;;;;;;;5113948;28;20473;-69
2022/03/17 08:10:53;;;;;;;52.80;27.90;;;;;;;;;;5113743;28;20453;-68
2022/03/17 08:13:22;;;;;;;50.40;30.90;;;;;;;;;;5113486;27;20926;-68
2022/03/17 08:15:49;;;;;;;45.50;27.00;;;;;;;;;;5113548;27;20449;-69
2022/03/17 08:18:16;;;;;;;47.27;27.30;;;;;;;;;;5113699;28;20466;-68
2022/03/17 08:20:43;;;;;;;43.13;28.53;;;;;;;;;;5113835;28;20485;-68
2022/03/17 08:23:15;;;;;;;38.87;27.10;;;;;;;;;;5113580;28;20446;-68
2022/03/17 08:25:43;;;;;;;43.80;26.40;;;;;;;;;;5113490;28;20450;-68
2022/03/17 08:28:10;;;;;;;40.07;25.17;;;;;;;;;;5113411;28;20478;-68
2022/03/17 08:30:38;;;;;;;40.67;26.80;;;;;;;;;;5113495;27;20449;-68
2022/03/17 08:33:05;;;;;;;47.60;25.63;;;;;;;;;;5113080;27;20882;-68
2022/03/17 08:35:33;;;;;;;38.47;25.37;;;;;;;;;;5112996;28;20454;-68
2022/03/17 08:38:00;;;;;;;37.93;22.97;;;;;;;;;;5113292;28;20839;-69
2022/03/17 08:40:28;;;;;;;36.50;25.80;;;;;;;;;;5113478;28;20456;-69
2022/03/17 08:42:55;;;;;;;35.53;25.50;;;;;;;;;;5112836;28;20433;-69
2022/03/17 08:50:52;;;;;;;34.83;25.60;;;;;;;;;;5113235;28;21040;-69
2022/03/17 08:53:19;;;;;;;32.73;22.93;;;;;;;;;;5113352;28;20464;-69
2022/03/17 08:55:49;;;;;;;33.13;22.20;;;;;;;;;;5113225;28;20453;-69
2022/03/17 08:58:16;;;;;;;41.00;25.60;;;;;;;;;;5113163;28;20978;-68
2022/03/17 09:00:43;;;;;;;31.97;20.37;;;;;;;;;;5112807;28;20452;-69
2022/03/17 09:03:10;;;;;;;33.07;21.97;;;;;;;;;;5113079;28;20938;-68
2022/03/17 09:05:38;;;;;;;37.03;26.93;;;;;;;;;;5113072;28;20450;-69
2022/03/17 09:08:05;;;;;;;37.33;24.63;;;;;;;;;;5112783;28;20465;-69
2022/03/17 09:10:32;;;;;;;31.57;21.97;;;;;;;;;;5113184;28;20505;-69
2022/03/17 09:13:07;;;;;;;45.03;23.57;;;;;;;;;;5114164;28;20473;-69
2022/03/17 09:15:35;;;;;;;35.10;23.20;;;;;;;;;;5117270;28;20480;-69
2022/03/17 09:18:02;;;;;;;32.43;23.07;;;;;;;;;;5116866;28;20473;-69
2022/03/17 09:20:29;;;;;;;33.50;24.87;;;;;;;;;;5117388;28;20829;-69
2022/03/17 09:22:57;;;;;;;35.33;24.07;;;;;;;;;;5117160;28;20480;-69
2022/03/17 09:25:25;;;;;;;30.50;20.37;;;;;;;;;;5117259;27;20454;-68
2022/03/17 09:27:52;;;;;;;37.83;26.37;;;;;;;;;;5117027;28;20470;-69
2022/03/17 09:30:21;;;;;;;32.90;23.57;;;;;;;;;;5117301;28;20931;-68
2022/03/17 09:32:48;;;;;;;37.73;26.00;;;;;;;;;;5117144;28;20441;-69
2022/03/17 09:35:16;;;;;;;37.07;25.07;;;;;;;;;;5116438;28;20446;-71
2022/03/17 09:37:43;;;;;;;46.03;31.40;;;;;;;;;;5117029;28;20474;-70
2022/03/17 09:40:11;;;;;;;40.97;25.90;;;;;;;;;;5116926;28;20452;-70
2022/03/17 09:42:38;;;;;;;32.90;21.70;;;;;;;;;;5116878;28;21020;-70
2022/03/17 09:45:09;;;;;;;33.10;22.43;;;;;;;;;;5116842;28;20453;-70
2022/03/17 09:47:38;;;;;;;35.67;21.57;;;;;;;;;;5116203;28;20513;-70
2022/03/17 09:50:07;;;;;;;31.50;24.83;;;;;;;;;;5116774;28;20454;-70
2022/03/17 09:52:34;;;;;;;37.40;25.37;;;;;;;;;;5116497;28;20450;-70
2022/03/17 09:55:01;;;;;;;33.33;24.33;;;;;;;;;;5116465;28;20452;-70
2022/03/17 09:57:29;;;;;;;32.70;24.97;;;;;;;;;;5116606;28;20477;-70
2022/03/17 09:59:57;;;;;;;28.30;21.30;;;;;;;;;;5116567;28;20458;-70
2022/03/17 10:02:24;;;;;;;35.80;26.73;;;;;;;;;;5116447;28;20521;-70
2022/03/17 10:04:53;;;;;;;28.33;21.93;;;;;;;;;;5116323;28;20457;-70
2022/03/17 10:07:21;;;;;;;29.80;22.97;;;;;;;;;;5116239;28;20469;-70
2022/03/17 10:09:49;;;;;;;31.00;24.50;;;;;;;;;;5116626;28;20503;-70
2022/03/17 10:12:18;;;;;;;28.73;21.57;;;;;;;;;;5116584;28;20808;-70
2022/03/17 10:14:47;;;;;;;31.23;22.90;;;;;;;;;;5116082;28;20900;-70
2022/03/17 10:17:31;;;;;;;28.83;19.47;;;;;;;;;;5100388;28;21009;-71
2022/03/17 10:20:12;;;;;;;36.60;23.67;;;;;;;;;;5093584;28;20451;-71
2022/03/17 10:22:41;;;;;;;29.57;22.07;;;;;;;;;;5094028;28;20482;-70
2022/03/17 10:25:08;;;;;;;30.33;22.87;;;;;;;;;;5092797;28;20540;-70
2022/03/17 10:27:40;;;;;;;28.20;22.17;;;;;;;;;;5093939;28;20467;-70
2022/03/17 10:30:08;;;;;;;29.43;21.53;;;;;;;;;;5094389;28;20516;-71
2022/03/17 10:32:36;;;;;;;30.80;21.37;;;;;;;;;;5094165;28;20450;-71
2022/03/17 10:35:05;;;;;;;30.77;22.47;;;;;;;;;;5093793;28;20838;-70
2022/03/17 10:37:36;;;;;;;31.27;24.30;;;;;;;;;;5094093;28;20942;-70
2022/03/17 10:40:10;;;;;;;28.80;20.53;;;;;;;;;;5094008;28;20451;-70
2022/03/17 10:42:37;;;;;;;29.33;20.23;;;;;;;;;;5093986;28;20553;-71
2022/03/17 10:45:06;;;;;;;30.37;22.70;;;;;;;;;;5093624;28;20462;-70
2022/03/17 10:47:34;;;;;;;29.07;21.20;;;;;;;;;;5093651;28;20501;-71
2022/03/17 10:50:03;;;;;;;29.90;22.27;;;;;;;;;;5093788;28;20447;-70
2022/03/17 10:52:49;;;;;;;31.73;24.23;;;;;;;;;;5093964;28;20581;-71
2022/03/17 10:55:19;;;;;;;28.97;20.00;;;;;;;;;;5093737;28;20451;-70
2022/03/17 10:57:47;;;;;;;61.53;37.90;;;;;;;;;;5093362;28;20471;-71
2022/03/17 11:00:21;;;;;;;117.17;65.13;;;;;;;;;;5095022;28;20446;-70
2022/03/17 11:02:50;;;;;;;39.47;23.63;;;;;;;;;;5094373;28;20514;-70
2022/03/17 11:05:17;;;;;;;31.53;23.00;;;;;;;;;;5094792;28;20457;-70
2022/03/17 11:07:45;;;;;;;32.43;21.30;;;;;;;;;;5094777;28;20471;-70
2022/03/17 11:10:15;;;;;;;30.20;20.53;;;;;;;;;;5094177;28;20543;-70
2022/03/17 11:12:44;;;;;;;48.13;30.13;;;;;;;;;;5094914;28;20454;-70
2022/03/17 11:15:11;;;;;;;30.73;19.80;;;;;;;;;;5094438;28;20527;-70
2022/03/17 11:17:40;;;;;;;36.70;23.20;;;;;;;;;;5094490;28;20470;-70
2022/03/17 11:20:08;;;;;;;25.63;20.60;;;;;;;;;;5094516;28;20458;-70
2022/03/17 11:22:36;;;;;;;27.03;20.47;;;;;;;;;;5094628;28;20490;-70
2022/03/17 11:25:19;;;;;;;27.13;18.43;;;;;;;;;;5094284;28;20454;-70
2022/03/17 11:27:48;;;;;;;31.80;17.97;;;;;;;;;;5094367;28;20818;-70
2022/03/17 11:30:15;;;;;;;34.30;22.57;;;;;;;;;;5094572;28;20451;-70
2022/03/17 11:32:50;;;;;;;25.63;19.67;;;;;;;;;;5093982;28;20461;-71
2022/03/17 11:35:18;;;;;;;34.37;19.77;;;;;;;;;;5094048;28;20457;-70
2022/03/17 11:37:45;;;;;;;30.83;22.00;;;;;;;;;;5092546;28;20489;-71
2022/03/17 11:40:14;;;;;;;32.80;23.60;;;;;;;;;;5092643;28;20486;-71
2022/03/17 11:42:42;;;;;;;31.23;18.70;;;;;;;;;;5092870;28;20497;-71
2022/03/17 11:45:12;;;;;;;29.97;18.50;;;;;;;;;;5092527;28;20451;-71
2022/03/17 11:47:39;;;;;;;107.23;48.77;;;;;;;;;;5092417;28;20948;-71
2022/03/17 11:50:26;;;;;;;30.40;21.50;;;;;;;;;;5092462;28;20963;-70
2022/03/17 11:52:53;;;;;;;43.53;27.40;;;;;;;;;;5092596;28;20828;-70
2022/03/17 11:55:34;;;;;;;50.00;36.57;;;;;;;;;;5092423;28;20460;-70
2022/03/17 11:58:20;;;;;;;30.10;20.33;;;;;;;;;;5092245;28;20470;-70
2022/03/17 12:00:48;;;;;;;33.33;22.70;;;;;;;;;;5092402;28;20447;-70
2022/03/17 12:03:15;;;;;;;28.30;18.63;;;;;;;;;;5092579;28;20482;-70
2022/03/17 12:05:43;;;;;;;31.30;18.50;;;;;;;;;;5092425;28;20965;-70
2022/03/17 12:08:10;;;;;;;29.40;18.37;;;;;;;;;;5092424;28;20479;-70
2022/03/17 12:10:56;;;;;;;29.97;20.17;;;;;;;;;;5092445;28;20450;-70
2022/03/17 12:13:25;;;;;;;30.03;21.33;;;;;;;;;;5092416;28;20478;-70
2022/03/17 12:15:57;;;;;;;34.00;22.70;;;;;;;;;;5091928;28;20553;-70
2022/03/17 12:18:24;;;;;;;30.80;20.30;;;;;;;;;;5091617;28;20478;-70
2022/03/17 12:20:52;;;;;;;34.13;20.90;;;;;;;;;;5092079;28;20465;-70
2022/03/17 12:23:38;;;;;;;35.90;20.17;;;;;;;;;;5092025;28;20489;-70
2022/03/17 12:26:06;;;;;;;27.67;19.33;;;;;;;;;;5091890;28;20800;-70
2022/03/17 12:28:33;;;;;;;29.97;20.53;;;;;;;;;;5092021;28;20474;-71
2022/03/17 12:31:01;;;;;;;27.87;19.10;;;;;;;;;;5091775;28;20453;-70
2022/03/17 12:33:32;;;;;;;32.93;20.93;;;;;;;;;;5091968;28;20447;-72
2022/03/17 12:36:08;;;;;;;33.63;22.30;;;;;;;;;;5091557;28;20461;-70
2022/03/17 12:38:35;;;;;;;29.03;18.60;;;;;;;;;;5091591;28;20467;-71
2022/03/17 12:41:02;;;;;;;27.00;18.50;;;;;;;;;;5091669;28;20967;-70
2022/03/17 12:43:34;;;;;;;26.07;20.03;;;;;;;;;;5091722;28;20486;-71
2022/03/17 12:46:03;;;;;;;26.30;18.07;;;;;;;;;;5091959;28;20450;-70
2022/03/17 12:48:31;;;;;;;33.17;20.23;;;;;;;;;;5091210;28;20850;-70
2022/03/17 12:51:04;;;;;;;50.07;19.43;;;;;;;;;;5106080;28;20458;-71
2022/03/17 12:53:32;;;;;;;31.03;18.63;;;;;;;;;;5111914;28;20502;-71
2022/03/17 12:55:59;;;;;;;31.73;20.10;;;;;;;;;;5112393;28;20479;-71
2022/03/17 12:58:26;;;;;;;36.07;21.90;;;;;;;;;;5112293;28;20974;-70
2022/03/17 13:00:53;;;;;;;31.60;18.93;;;;;;;;;;5104275;28;20462;-71
2022/03/17 13:03:25;;;;;;;31.70;19.00;;;;;;;;;;5091552;28;20491;-71
2022/03/17 13:08:38;;;;;;;30.73;19.43;;;;;;;;;;5091636;28;20446;-71
2022/03/17 13:16:38;;;;;;;24.77;18.97;;;;;;;;;;5091690;28;20432;-71
2022/03/17 13:19:08;;;;;;;25.57;17.33;;;;;;;;;;5091246;28;20474;-70
2022/03/17 13:21:35;;;;;;;24.40;18.40;;;;;;;;;;5094345;28;20445;-70
2022/03/17 13:24:15;;;;;;;28.33;17.33;;;;;;;;;;5107283;28;20485;-70
2022/03/17 13:26:42;;;;;;;23.33;16.97;;;;;;;;;;5111773;28;20457;-70
2022/03/17 13:29:09;;;;;;;35.13;18.50;;;;;;;;;;5111823;28;20474;-70
2022/03/17 13:31:37;;;;;;;23.80;16.60;;;;;;;;;;5112324;28;20450;-70
2022/03/17 13:34:04;;;;;;;25.77;18.43;;;;;;;;;;5112443;28;20942;-70
2022/03/17 13:36:50;;;;;;;31.10;16.37;;;;;;;;;;5113209;28;20457;-70
2022/03/17 13:39:18;;;;;;;25.03;17.97;;;;;;;;;;5113183;28;20456;-70
2022/03/17 13:41:57;;;;;;;27.63;17.30;;;;;;;;;;5112974;28;20450;-70
2022/03/17 13:44:24;;;;;;;24.47;18.63;;;;;;;;;;5112916;28;20864;-70
2022/03/17 13:46:51;;;;;;;26.97;20.07;;;;;;;;;;5112892;28;20453;-70
2022/03/17 13:49:26;;;;;;;29.20;18.10;;;;;;;;;;5112998;28;20464;-70
2022/03/17 13:51:53;;;;;;;32.77;19.43;;;;;;;;;;5113085;28;20453;-70
2022/03/17 13:54:22;;;;;;;26.80;19.20;;;;;;;;;;5112844;28;20829;-70
2022/03/17 13:56:49;;;;;;;30.53;18.27;;;;;;;;;;5112799;28;20453;-70
2022/03/17 13:59:16;;;;;;;28.73;19.20;;;;;;;;;;5113363;28;20472;-70
2022/03/17 14:01:43;;;;;;;30.03;19.67;;;;;;;;;;5116720;28;20450;-70
2022/03/17 14:04:11;;;;;;;27.53;19.00;;;;;;;;;;5116501;28;20488;-70
2022/03/17 14:06:39;;;;;;;29.40;18.93;;;;;;;;;;5116544;28;20455;-70
2022/03/17 14:09:06;;;;;;;30.30;19.40;;;;;;;;;;5116723;28;20469;-70
2022/03/17 14:11:36;;;;;;;25.03;18.30;;;;;;;;;;5116604;28;20523;-70
2022/03/17 14:14:04;;;;;;;29.87;19.83;;;;;;;;;;5116225;28;20589;-70
2022/03/17 14:16:32;;;;;;;38.60;21.57;;;;;;;;;;5116576;28;20826;-70
2022/03/17 14:19:00;;;;;;;32.50;20.90;;;;;;;;;;5116493;27;20470;-69
2022/03/17 14:21:28;;;;;;;38.63;19.50;;;;;;;;;;5116320;28;20453;-70
2022/03/17 14:24:13;;;;;;;27.73;19.70;;;;;;;;;;5112755;28;20892;-71
2022/03/17 14:26:42;;;;;;;30.60;20.07;;;;;;;;;;5114996;28;20441;-71
2022/03/17 14:29:10;;;;;;;27.70;18.40;;;;;;;;;;5114805;27;20501;-70
2022/03/17 14:31:38;;;;;;;37.73;20.90;;;;;;;;;;5114728;28;20449;-70
2022/03/17 14:34:06;;;;;;;26.17;18.80;;;;;;;;;;5114144;28;20452;-71
2022/03/17 14:36:34;;;;;;;64.40;31.67;;;;;;;;;;5114760;27;20527;-70
2022/03/17 14:39:04;;;;;;;35.30;21.60;;;;;;;;;;5114467;28;20883;-71
2022/03/17 14:41:31;;;;;;;44.40;26.37;;;;;;;;;;5114560;28;20866;-70
2022/03/17 14:43:59;;;;;;;54.27;29.40;;;;;;;;;;5114081;28;20481;-70